Home > Products > Valid Products > TAF

000
FTUS43 KLBF 250500
TAFLBF
TAF
KLBF 250520Z 2506/2606 24005KT P6SM SCT250
     FM252100 19006KT P6SM SCT150 BKN250=



000
FTUS43 KLBF 250500
TAFVTN
TAF
KVTN 250520Z 2506/2606 VRB03KT P6SM SCT100 BKN200
     FM251200 VRB05KT P6SM SCT250
     FM260000 12009KT P6SM SCT120 BKN200=



000
FTUS43 KLBF 242300
TAFLBF
TAF
KLBF 242320Z 2500/2524 24006KT P6SM SCT250
     FM252100 19006KT P6SM SCT150 BKN250=



000
FTUS43 KLBF 242300
TAFVTN
TAF
KVTN 242320Z 2500/2524 32008KT P6SM SCT250
     FM250400 VRB03KT P6SM SCT100 BKN200
     FM251200 VRB05KT P6SM SCT250=



000
FTUS43 KLBF 241700
TAFVTN
TAF
KVTN 241720Z 2418/2518 32015G25KT P6SM SKC
     FM250000 30008KT P6SM SCT250=



000
FTUS43 KLBF 241700
TAFLBF
TAF
KLBF 241720Z 2418/2518 31015G24KT P6SM SKC
     FM242300 29009KT P6SM SCT250=



000
FTUS43 KLBF 241100
TAFVTN
TAF
KVTN 241120Z 2412/2512 30012KT P6SM SCT150 BKN200
     FM241400 30015G25KT P6SM SKC
     FM250000 31008KT P6SM SCT250=



000
FTUS43 KLBF 241100
TAFLBF
TAF
KLBF 241120Z 2412/2512 31009KT P6SM BKN150
     FM241500 33015G24KT P6SM SKC
     FM242300 29010KT P6SM SKC=



000
FTUS43 KLBF 240500 RRA
TAFLBF
TAF
KLBF 240546Z 2406/2506 33013G21KT P6SM BKN100
     FM241200 32011G15KT P6SM SCT250
     FM241500 31015G25KT P6SM SKC
     FM242300 29012KT P6SM SCT250=



000
FTUS43 KLBF 240500 RRA
TAFVTN
TAF
KVTN 240546Z 2406/2506 30013G19KT P6SM SCT150 BKN200
     FM241400 30015G25KT P6SM SKC
     FM242300 31010KT P6SM SCT250=



000
FTUS43 KLBF 232300
TAFLBF
TAF
KLBF 232320Z 2400/2424 33019G26KT P6SM SCT110 BKN150
     FM240400 33014G24KT P6SM SCT150
     FM241000 32011KT P6SM SKC
     FM241500 31017G26KT P6SM SKC=



000
FTUS43 KLBF 232300
TAFVTN
TAF
KVTN 232320Z 2400/2424 30020G28KT P6SM FEW110 BKN150
     FM240300 33013G19KT P6SM SCT120
     FM240600 31013KT P6SM SCT120
     FM241500 30018G27KT P6SM SKC=



000
FTUS43 KLBF 231700
TAFVTN
TAF
KVTN 231720Z 2318/2418 20015G25KT P6SM BKN200
     FM231900 27015G25KT P6SM BKN150
     FM232200 30021G30KT P6SM SKC
     FM240300 34015G25KT P6SM BKN120
     FM240600 30013KT P6SM SCT120
     FM241400 29018G27KT P6SM SKC=



000
FTUS43 KLBF 231700
TAFLBF
TAF
KLBF 231720Z 2318/2418 28015G23KT P6SM SCT120
     FM232300 32020G30KT P6SM BKN070
     FM240300 33014G24KT P6SM BKN070
     FM241000 32011KT P6SM SKC
     FM241500 31018G26KT P6SM SKC=



000
FTUS43 KLBF 231100
TAFVTN
TAF
KVTN 231121Z 2312/2412 15012KT P6SM BKN150
     FM231500 19018G25KT P6SM BKN120
     FM231700 23017G25KT P6SM SCT120
     FM232100 30018G27KT P6SM BKN120
      TEMPO 2322/2402 32022G33KT
     FM240300 34011KT P6SM BKN120
     FM240900 29010KT P6SM SKC=



000
FTUS43 KLBF 231100
TAFLBF
TAF
KLBF 231121Z 2312/2412 15017KT P6SM BKN200
     FM231600 19015KT P6SM BKN200
     FM231800 22012KT P6SM BKN200
     FM232000 28015G25KT P6SM VCTS BKN070CB
      TEMPO 2322/2402 32022G32KT
     FM240200 32011G24KT P6SM BKN070
     FM240600 34011KT P6SM SKC=



000
FTUS43 KLBF 230500
TAFVTN
TAF
KVTN 230528Z 2306/2406 14012KT P6SM BKN150
     FM230700 15018G25KT P6SM SCT070 BKN120
      TEMPO 2307/2310 -SHRA BKN070 OVC120
     FM231400 19018G25KT P6SM BKN120
     FM231700 23017G25KT P6SM BKN100
     FM231900 33015G25KT P6SM BKN100
     FM240200 34011KT P6SM BKN100=



000
FTUS43 KLBF 230500
TAFLBF
TAF
KLBF 230528Z 2306/2406 15017G27KT P6SM BKN200
     FM231500 19015G25KT P6SM BKN250
     FM231700 24012G20KT P6SM BKN250
     FM232000 33018G28KT P6SM BKN070
     FM240200 34011KT P6SM BKN100=



000
FTUS43 KLBF 230300 AAA
TAFVTN
TAF AMD
KVTN 230303Z 2303/2324 14012KT P6SM BKN150
     FM230600 15018G25KT P6SM BKN120
     FM231400 19018G25KT P6SM BKN120
     FM231700 23017G25KT P6SM BKN100
     FM231900 33015G25KT P6SM BKN100=



000
FTUS43 KLBF 222300
TAFVTN
TAF
KVTN 222321Z 2300/2324 17024G34KT P6SM BKN150
     FM230100 15019G27KT P6SM BKN120
     FM231400 19018G27KT P6SM BKN120
     FM231700 23017G25KT P6SM BKN100
     FM231900 33015G25KT P6SM BKN100=



000
FTUS43 KLBF 222300
TAFLBF
TAF
KLBF 222321Z 2300/2324 16020G30KT P6SM SCT200
     FM230400 15016G26KT P6SM BKN100 OVC150
     FM230600 14015G25KT P6SM SCT100 BKN150
     FM231500 19015G25KT P6SM BKN250
     FM231700 24015G25KT P6SM BKN250
     FM232000 33015G25KT P6SM BKN070=



000
FTUS43 KLBF 221700
TAFLBF
TAF
KLBF 221736Z 2218/2318 17018G29KT P6SM SCT200
     FM230200 15018G27KT P6SM VCTS BKN100CB OVC200
     FM230600 14015G25KT P6SM BKN120
     FM231500 19015G25KT P6SM BKN250
     FM231700 24015G25KT P6SM BKN250=



000
FTUS43 KLBF 221700
TAFVTN
TAF
KVTN 221736Z 2218/2318 18022G32KT P6SM SCT250
     FM230100 15019G27KT P6SM BKN120
     FM231400 19018G27KT P6SM BKN120
     FM231700 23017G25KT P6SM BKN120=



000
FTUS43 KLBF 221300 AAA
TAFVTN
TAF AMD
KVTN 221332Z 2214/2312 17018G25KT P6SM SCT250
     FM221800 17022G30KT P6SM SCT120 SCT250
     FM230100 15019G25KT P6SM BKN120 BKN200
     FM230600 15018KT P6SM BKN200=



000
FTUS43 KLBF 221100
TAFLBF
TAF
KLBF 221124Z 2212/2312 14007KT P6SM SCT250
     FM221500 16014G21KT P6SM SCT250
     FM221800 17020G28KT P6SM SCT250
     FM230200 15018G25KT P6SM VCTS BKN100CB OVC200
     FM230700 14013KT P6SM BKN120=



000
FTUS43 KLBF 221100
TAFVTN
TAF
KVTN 221124Z 2212/2312 15007KT P6SM SCT120 SCT250
     FM221500 17018G25KT P6SM SCT250
     FM221800 17022G30KT P6SM SCT120 SCT250
     FM230100 15019G25KT P6SM BKN120 BKN200
     FM230600 15018KT P6SM BKN200=



    US Dept of Commerce
    National Oceanic and Atmospheric Administration
    National Weather Service
    1325 East West Highway
    Silver Spring, MD 20910
    Page Author: NWS Internet Services Team
Disclaimer
Information Quality
Credits
Glossary
Privacy Policy
Freedom of Information Act (FOIA)
About Us
Career Opportunities